Time;durP1;ratioP1;P1;durP2;ratioP2;P2;SDS_P1;SDS_P2;PMS_P1;PMS_P2;Temp;Humidity;BMP_temperature;BMP_pressure;BME280_temperature;BME280_humidity;BME280_pressure;Samples;Min_cycle;Max_cycle;Signal;HPM_P1;HPM_P2
2022/05/10 00:00:53;;;;;;;16.95;12.60;;;;;;;;;;5016766;28;20037;-75
2022/05/10 00:03:21;;;;;;;19.45;13.18;;;;;;;;;;5016545;28;20033;-75
2022/05/10 00:05:47;;;;;;;17.25;12.48;;;;;;;;;;5019855;28;20045;-75
2022/05/10 00:08:15;;;;;;;17.02;13.05;;;;;;;;;;5006380;28;20501;-76
2022/05/10 00:10:42;;;;;;;18.70;12.77;;;;;;;;;;5005432;28;20092;-76
2022/05/10 00:13:08;;;;;;;17.20;12.73;;;;;;;;;;5019826;28;20021;-76
2022/05/10 00:15:34;;;;;;;18.15;13.13;;;;;;;;;;5018050;28;20287;-76
2022/05/10 00:18:01;;;;;;;19.05;13.15;;;;;;;;;;5018498;28;20038;-75
2022/05/10 00:20:27;;;;;;;17.73;12.40;;;;;;;;;;5007698;28;20037;-75
2022/05/10 00:22:54;;;;;;;20.23;12.80;;;;;;;;;;5013254;28;20037;-75
2022/05/10 00:25:24;;;;;;;17.02;12.43;;;;;;;;;;5010056;28;20489;-76
2022/05/10 00:27:50;;;;;;;20.20;12.00;;;;;;;;;;5016798;28;20061;-77
2022/05/10 00:30:17;;;;;;;15.50;10.52;;;;;;;;;;5016083;28;20116;-76
2022/05/10 00:32:43;;;;;;;15.00;11.32;;;;;;;;;;5012706;28;20523;-76
2022/05/10 00:35:16;;;;;;;19.42;11.43;;;;;;;;;;5012102;28;20029;-76
2022/05/10 00:37:43;;;;;;;16.98;11.57;;;;;;;;;;5026819;28;20025;-76
2022/05/10 00:40:09;;;;;;;14.30;11.05;;;;;;;;;;5025872;28;20043;-76
2022/05/10 00:42:39;;;;;;;17.90;10.90;;;;;;;;;;5025412;28;20028;-76
2022/05/10 00:45:08;;;;;;;19.25;11.35;;;;;;;;;;5023529;28;20044;-76
2022/05/10 00:47:34;;;;;;;16.45;10.63;;;;;;;;;;5015344;28;20403;-76
2022/05/10 00:50:18;;;;;;;13.32;10.38;;;;;;;;;;5012121;28;20096;-77
2022/05/10 00:52:54;;;;;;;16.55;11.02;;;;;;;;;;5027936;28;20510;-76
2022/05/10 00:55:29;;;;;;;17.13;11.43;;;;;;;;;;5018980;28;20084;-76
2022/05/10 00:57:57;;;;;;;14.43;11.05;;;;;;;;;;5026838;28;20021;-76
2022/05/10 01:00:27;;;;;;;19.63;11.73;;;;;;;;;;5024928;28;20034;-76
2022/05/10 01:02:56;;;;;;;18.05;12.43;;;;;;;;;;5019782;28;20017;-76
2022/05/10 01:05:44;;;;;;;15.88;11.98;;;;;;;;;;5017079;28;20057;-77
2022/05/10 01:08:17;;;;;;;16.48;12.68;;;;;;;;;;5014723;28;20025;-76
2022/05/10 01:10:49;;;;;;;19.17;14.13;;;;;;;;;;5017146;28;20034;-76
2022/05/10 01:13:22;;;;;;;18.38;13.27;;;;;;;;;;5017577;28;20030;-76
2022/05/10 01:16:08;;;;;;;19.60;14.13;;;;;;;;;;5019162;28;20064;-76
2022/05/10 01:18:35;;;;;;;19.88;14.05;;;;;;;;;;5018152;28;20497;-76
2022/05/10 01:21:22;;;;;;;17.27;13.48;;;;;;;;;;5019074;28;20026;-76
2022/05/10 01:23:50;;;;;;;23.25;13.32;;;;;;;;;;5001364;28;20038;-76
2022/05/10 01:26:31;;;;;;;18.63;13.55;;;;;;;;;;4993503;28;20045;-76
2022/05/10 01:29:01;;;;;;;20.65;13.80;;;;;;;;;;4995375;28;20089;-76
2022/05/10 01:31:33;;;;;;;21.17;14.30;;;;;;;;;;5001282;28;20057;-76
2022/05/10 01:34:06;;;;;;;22.08;14.43;;;;;;;;;;5006472;28;20040;-76
2022/05/10 01:36:35;;;;;;;20.00;13.38;;;;;;;;;;5010295;28;20108;-76
2022/05/10 01:39:04;;;;;;;19.40;14.25;;;;;;;;;;5010682;28;20033;-77
2022/05/10 01:41:43;;;;;;;22.58;14.48;;;;;;;;;;5011040;28;20451;-76
2022/05/10 01:44:18;;;;;;;22.30;14.95;;;;;;;;;;5011002;28;20044;-76
2022/05/10 01:46:46;;;;;;;18.95;13.57;;;;;;;;;;4995580;28;20154;-76
2022/05/10 01:49:39;;;;;;;19.13;13.85;;;;;;;;;;5011196;28;20564;-77
2022/05/10 01:52:28;;;;;;;22.33;14.80;;;;;;;;;;5007747;28;20588;-76
2022/05/10 01:54:59;;;;;;;19.90;14.35;;;;;;;;;;5009984;28;20069;-76
2022/05/10 01:57:26;;;;;;;20.98;13.90;;;;;;;;;;5010175;28;20113;-76
2022/05/10 01:59:57;;;;;;;23.42;14.02;;;;;;;;;;5010719;28;20500;-76
2022/05/10 02:02:26;;;;;;;20.73;14.68;;;;;;;;;;5016514;28;20061;-77
2022/05/10 02:04:54;;;;;;;21.77;15.20;;;;;;;;;;5014406;28;20042;-76
2022/05/10 02:07:22;;;;;;;21.70;15.32;;;;;;;;;;5017030;28;20543;-76
2022/05/10 02:10:00;;;;;;;22.23;15.00;;;;;;;;;;5024824;28;20047;-76
2022/05/10 02:12:26;;;;;;;22.40;15.13;;;;;;;;;;5027937;28;20109;-76
2022/05/10 02:14:57;;;;;;;21.13;15.55;;;;;;;;;;5027446;28;20056;-76
2022/05/10 02:17:26;;;;;;;22.90;15.10;;;;;;;;;;5026498;28;20022;-76
2022/05/10 02:20:10;;;;;;;24.10;16.05;;;;;;;;;;5029744;28;20100;-76
2022/05/10 02:22:48;;;;;;;22.33;16.50;;;;;;;;;;5028892;28;20040;-76
2022/05/10 02:25:17;;;;;;;24.10;15.13;;;;;;;;;;5028012;28;20057;-76
2022/05/10 02:27:49;;;;;;;22.65;16.15;;;;;;;;;;5020486;28;20034;-76
2022/05/10 02:30:22;;;;;;;22.45;15.65;;;;;;;;;;5018314;28;20388;-76
2022/05/10 02:33:06;;;;;;;24.02;14.95;;;;;;;;;;5017776;28;20112;-76
2022/05/10 02:35:34;;;;;;;25.70;16.33;;;;;;;;;;5016784;28;20075;-76
2022/05/10 02:38:00;;;;;;;22.17;15.80;;;;;;;;;;5014203;28;20420;-76
2022/05/10 02:40:26;;;;;;;23.23;15.30;;;;;;;;;;5015718;28;20037;-77
2022/05/10 02:42:52;;;;;;;21.80;14.60;;;;;;;;;;5017643;28;20026;-76
2022/05/10 02:45:18;;;;;;;22.63;15.15;;;;;;;;;;5017376;28;20030;-76
2022/05/10 02:47:46;;;;;;;23.20;14.77;;;;;;;;;;5015561;28;20398;-76
2022/05/10 02:50:26;;;;;;;22.90;15.13;;;;;;;;;;5028152;28;20124;-76
2022/05/10 02:52:52;;;;;;;21.00;14.30;;;;;;;;;;5014348;28;20088;-76
2022/05/10 02:55:22;;;;;;;23.70;16.70;;;;;;;;;;5028390;28;20463;-76
2022/05/10 02:57:51;;;;;;;23.00;14.93;;;;;;;;;;5019312;28;20390;-76
2022/05/10 03:00:18;;;;;;;26.92;15.50;;;;;;;;;;5017370;28;20022;-76
2022/05/10 03:02:46;;;;;;;22.77;15.38;;;;;;;;;;5015983;28;20025;-75
2022/05/10 03:05:14;;;;;;;22.38;14.90;;;;;;;;;;5013518;28;20041;-76
2022/05/10 03:07:40;;;;;;;21.05;15.77;;;;;;;;;;5015150;28;20054;-76
2022/05/10 03:10:06;;;;;;;23.33;16.55;;;;;;;;;;5017444;28;20041;-76
2022/05/10 03:12:33;;;;;;;22.73;16.15;;;;;;;;;;5017007;28;20444;-77
2022/05/10 03:14:59;;;;;;;24.85;16.67;;;;;;;;;;5016755;28;20103;-76
2022/05/10 03:17:26;;;;;;;24.70;16.20;;;;;;;;;;5014640;28;20030;-76
2022/05/10 03:19:52;;;;;;;25.70;16.15;;;;;;;;;;5014444;28;20055;-76
2022/05/10 03:22:18;;;;;;;26.05;17.95;;;;;;;;;;5016576;28;20054;-76
2022/05/10 03:24:44;;;;;;;22.77;17.33;;;;;;;;;;5016698;28;20072;-76
2022/05/10 03:27:11;;;;;;;23.75;17.27;;;;;;;;;;5018215;28;20029;-76
2022/05/10 03:29:39;;;;;;;22.83;16.65;;;;;;;;;;5024831;28;20041;-76
2022/05/10 03:32:05;;;;;;;25.23;17.23;;;;;;;;;;5012478;28;20029;-76
2022/05/10 03:37:16;;;;;;;27.90;19.20;;;;;;;;;;5028355;28;20642;-76
2022/05/10 03:39:42;;;;;;;27.00;19.05;;;;;;;;;;5019546;28;20489;-76
2022/05/10 03:42:09;;;;;;;26.83;18.85;;;;;;;;;;5016690;28;20088;-76
2022/05/10 03:44:36;;;;;;;28.45;19.30;;;;;;;;;;5016181;28;20030;-76
2022/05/10 03:47:02;;;;;;;26.63;19.02;;;;;;;;;;5012719;28;20030;-76
2022/05/10 03:49:29;;;;;;;27.75;19.88;;;;;;;;;;5015991;28;20165;-76
2022/05/10 03:51:55;;;;;;;27.13;19.08;;;;;;;;;;5016528;28;20022;-77
2022/05/10 03:54:22;;;;;;;26.35;19.75;;;;;;;;;;5016635;28;20588;-76
2022/05/10 03:56:48;;;;;;;26.58;18.70;;;;;;;;;;5016416;28;20392;-76
2022/05/10 03:59:14;;;;;;;29.48;20.50;;;;;;;;;;5013544;28;20168;-77
2022/05/10 04:01:41;;;;;;;25.92;18.13;;;;;;;;;;5014409;28;20022;-77
2022/05/10 04:04:07;;;;;;;25.27;18.23;;;;;;;;;;5016865;28;20030;-77
2022/05/10 04:06:33;;;;;;;27.30;17.83;;;;;;;;;;5020868;28;20037;-77
2022/05/10 04:08:59;;;;;;;29.80;19.27;;;;;;;;;;5024066;28;20037;-77
2022/05/10 04:11:25;;;;;;;30.63;19.65;;;;;;;;;;5013807;28;20021;-77
2022/05/10 04:13:52;;;;;;;26.05;17.55;;;;;;;;;;5028339;28;20388;-76
2022/05/10 04:16:18;;;;;;;23.98;17.52;;;;;;;;;;5024092;28;20052;-77
2022/05/10 04:18:44;;;;;;;25.77;17.75;;;;;;;;;;5018744;28;20109;-77
2022/05/10 04:21:10;;;;;;;24.63;17.27;;;;;;;;;;5015162;28;20449;-77
2022/05/10 04:23:36;;;;;;;26.40;17.90;;;;;;;;;;5016004;28;20116;-76
2022/05/10 04:26:06;;;;;;;27.80;18.48;;;;;;;;;;5012362;28;20091;-77
2022/05/10 04:28:34;;;;;;;27.10;17.95;;;;;;;;;;5017430;28;20057;-77
2022/05/10 04:31:00;;;;;;;30.23;19.15;;;;;;;;;;5019896;28;20040;-77
2022/05/10 04:33:27;;;;;;;23.98;18.30;;;;;;;;;;5020042;28;20132;-77
2022/05/10 04:35:54;;;;;;;30.48;18.95;;;;;;;;;;5019912;28;20040;-76
2022/05/10 04:38:20;;;;;;;33.67;20.42;;;;;;;;;;5017232;28;20022;-76
2022/05/10 04:43:32;;;;;;;28.73;19.25;;;;;;;;;;5019310;28;20100;-76
2022/05/10 04:45:58;;;;;;;27.58;19.58;;;;;;;;;;5019216;28;20026;-76
2022/05/10 04:48:24;;;;;;;28.88;19.60;;;;;;;;;;5023328;28;20040;-76
2022/05/10 04:50:50;;;;;;;28.80;19.08;;;;;;;;;;5029569;28;20429;-76
2022/05/10 04:53:16;;;;;;;25.67;18.40;;;;;;;;;;5016632;28;20034;-77
2022/05/10 04:55:42;;;;;;;29.25;20.10;;;;;;;;;;5017513;28;20060;-76
2022/05/10 04:58:08;;;;;;;27.90;19.67;;;;;;;;;;5019925;28;20054;-76
2022/05/10 05:00:34;;;;;;;30.45;19.02;;;;;;;;;;5019582;28;20477;-76
2022/05/10 05:03:00;;;;;;;28.60;19.27;;;;;;;;;;5019638;28;20484;-76
2022/05/10 05:05:27;;;;;;;28.65;19.45;;;;;;;;;;5016731;28;20037;-74
2022/05/10 05:07:53;;;;;;;25.48;18.38;;;;;;;;;;5031053;28;20033;-76
2022/05/10 05:10:19;;;;;;;31.85;19.30;;;;;;;;;;5022406;28;20488;-79
2022/05/10 05:12:45;;;;;;;31.75;19.52;;;;;;;;;;5024478;28;20037;-77
2022/05/10 05:15:12;;;;;;;28.80;18.88;;;;;;;;;;5026035;28;20030;-81
2022/05/10 05:17:38;;;;;;;28.58;18.58;;;;;;;;;;5018946;28;20030;-80
2022/05/10 05:20:05;;;;;;;29.77;19.65;;;;;;;;;;5015604;28;20052;-75
2022/05/10 05:22:31;;;;;;;34.33;19.38;;;;;;;;;;5026212;28;20498;-75
2022/05/10 05:24:57;;;;;;;34.50;21.17;;;;;;;;;;5022721;28;20096;-75
2022/05/10 05:27:23;;;;;;;30.88;19.48;;;;;;;;;;5024533;28;20643;-76
2022/05/10 05:29:50;;;;;;;31.08;18.23;;;;;;;;;;5019463;28;20037;-75
2022/05/10 05:32:18;;;;;;;34.03;19.75;;;;;;;;;;5015677;28;20079;-75
2022/05/10 05:34:44;;;;;;;29.13;18.45;;;;;;;;;;5015469;28;20033;-76
2022/05/10 05:39:55;;;;;;;27.80;17.65;;;;;;;;;;5017639;28;20509;-75
2022/05/10 05:42:21;;;;;;;26.92;19.48;;;;;;;;;;5018483;28;20040;-75
2022/05/10 05:44:47;;;;;;;30.25;18.75;;;;;;;;;;5018664;28;20354;-75
2022/05/10 05:47:13;;;;;;;29.73;21.02;;;;;;;;;;5029663;28;20025;-76
2022/05/10 05:49:39;;;;;;;33.65;22.63;;;;;;;;;;5023896;28;20071;-76
2022/05/10 05:52:06;;;;;;;29.98;22.52;;;;;;;;;;5019068;28;20061;-75
2022/05/10 05:54:32;;;;;;;32.70;23.17;;;;;;;;;;5018079;28;20058;-74
2022/05/10 05:57:05;;;;;;;33.75;22.98;;;;;;;;;;5017284;28;20033;-75
2022/05/10 05:59:32;;;;;;;33.80;24.45;;;;;;;;;;5029484;28;20028;-76
2022/05/10 06:01:58;;;;;;;31.38;21.73;;;;;;;;;;5029404;28;20041;-71
2022/05/10 06:04:24;;;;;;;28.45;22.77;;;;;;;;;;5017558;28;20497;-69
2022/05/10 06:06:50;;;;;;;38.30;23.17;;;;;;;;;;5018020;28;20511;-70
2022/05/10 06:09:22;;;;;;;31.23;22.05;;;;;;;;;;5014536;28;20040;-69
2022/05/10 06:11:48;;;;;;;30.27;21.85;;;;;;;;;;5017430;28;20432;-70
2022/05/10 06:14:14;;;;;;;35.63;22.02;;;;;;;;;;5014169;28;20030;-69
2022/05/10 06:16:41;;;;;;;32.45;22.15;;;;;;;;;;5015957;28;20026;-70
2022/05/10 06:19:10;;;;;;;36.67;23.42;;;;;;;;;;5018314;28;20424;-70
2022/05/10 06:21:37;;;;;;;35.80;23.83;;;;;;;;;;5019224;28;20064;-69
2022/05/10 06:24:03;;;;;;;36.63;25.08;;;;;;;;;;5023264;28;20113;-69
2022/05/10 06:26:29;;;;;;;38.40;25.25;;;;;;;;;;5015830;28;20037;-70
2022/05/10 06:28:55;;;;;;;39.25;23.70;;;;;;;;;;5014937;28;20081;-70
2022/05/10 06:31:21;;;;;;;33.42;22.23;;;;;;;;;;5017041;28;20022;-70
2022/05/10 06:33:47;;;;;;;30.80;22.08;;;;;;;;;;5017451;28;20038;-69
2022/05/10 06:36:13;;;;;;;34.15;22.95;;;;;;;;;;5017205;28;20504;-70
2022/05/10 06:38:40;;;;;;;36.45;23.25;;;;;;;;;;5016927;28;20488;-70
2022/05/10 06:41:07;;;;;;;33.95;21.52;;;;;;;;;;5017875;28;20102;-70
2022/05/10 06:43:35;;;;;;;31.00;21.67;;;;;;;;;;5016513;28;20030;-69
2022/05/10 06:46:15;;;;;;;37.25;22.38;;;;;;;;;;5016777;28;20032;-69
2022/05/10 06:48:45;;;;;;;29.33;21.27;;;;;;;;;;5022693;28;20033;-69
2022/05/10 06:51:11;;;;;;;30.95;21.73;;;;;;;;;;5026088;28;20116;-68
2022/05/10 06:53:39;;;;;;;30.98;21.67;;;;;;;;;;5017801;28;20029;-69
2022/05/10 06:56:06;;;;;;;29.88;21.02;;;;;;;;;;5011919;28;20035;-69
2022/05/10 06:58:32;;;;;;;26.95;18.02;;;;;;;;;;5017532;28;20440;-69
2022/05/10 07:00:58;;;;;;;31.83;21.55;;;;;;;;;;5017755;28;20401;-69
2022/05/10 07:03:34;;;;;;;37.67;24.13;;;;;;;;;;5016635;28;20192;-70
2022/05/10 07:06:01;;;;;;;35.30;22.95;;;;;;;;;;5022298;28;20033;-70
2022/05/10 07:08:28;;;;;;;37.70;27.92;;;;;;;;;;5014188;28;20037;-69
2022/05/10 07:10:54;;;;;;;39.47;28.73;;;;;;;;;;5025690;28;20025;-69
2022/05/10 07:13:25;;;;;;;40.33;31.98;;;;;;;;;;5025830;28;20021;-70
2022/05/10 07:15:51;;;;;;;35.80;28.83;;;;;;;;;;5014797;28;20046;-70
2022/05/10 07:18:18;;;;;;;31.98;28.10;;;;;;;;;;5012844;28;20034;-69
2022/05/10 07:20:45;;;;;;;33.92;26.38;;;;;;;;;;5010258;28;20029;-69
2022/05/10 07:23:12;;;;;;;30.08;25.13;;;;;;;;;;5025227;28;20041;-70
2022/05/10 07:25:38;;;;;;;29.05;25.95;;;;;;;;;;5023905;28;20021;-70
2022/05/10 07:28:08;;;;;;;31.75;25.95;;;;;;;;;;5021332;28;20084;-69
2022/05/10 07:30:34;;;;;;;41.28;27.90;;;;;;;;;;5016537;28;20030;-70
2022/05/10 07:33:00;;;;;;;35.97;26.98;;;;;;;;;;5012340;28;20571;-69
2022/05/10 07:38:12;;;;;;;33.08;28.23;;;;;;;;;;5008349;28;20028;-70
2022/05/10 07:40:38;;;;;;;35.65;26.23;;;;;;;;;;5011569;28;20041;-70
2022/05/10 07:43:05;;;;;;;35.28;27.35;;;;;;;;;;5021964;28;20025;-69
2022/05/10 07:45:32;;;;;;;35.95;26.13;;;;;;;;;;5017061;28;20540;-69
2022/05/10 07:47:58;;;;;;;35.05;27.05;;;;;;;;;;5015266;28;20025;-70
2022/05/10 07:50:25;;;;;;;38.80;28.75;;;;;;;;;;5014209;28;20034;-69
2022/05/10 07:52:51;;;;;;;30.98;25.92;;;;;;;;;;5013339;28;20424;-70
2022/05/10 07:55:18;;;;;;;29.75;25.58;;;;;;;;;;5015635;28;20034;-69
2022/05/10 07:57:44;;;;;;;29.70;26.45;;;;;;;;;;5016376;28;20453;-70
2022/05/10 08:00:14;;;;;;;28.75;23.33;;;;;;;;;;5017752;28;20049;-69
2022/05/10 08:02:43;;;;;;;31.83;22.88;;;;;;;;;;5029141;28;20025;-69
2022/05/10 08:05:13;;;;;;;28.33;20.85;;;;;;;;;;5016244;28;20026;-69
2022/05/10 08:07:39;;;;;;;27.40;20.13;;;;;;;;;;5018939;28;20061;-69
2022/05/10 08:10:06;;;;;;;22.48;20.08;;;;;;;;;;5020173;28;20045;-69
2022/05/10 08:12:32;;;;;;;24.42;18.50;;;;;;;;;;5020179;28;20030;-69
2022/05/10 08:14:58;;;;;;;23.85;17.67;;;;;;;;;;5019750;28;20041;-70
2022/05/10 08:17:24;;;;;;;25.15;18.17;;;;;;;;;;5017686;28;20026;-69
2022/05/10 08:19:51;;;;;;;19.80;17.05;;;;;;;;;;5017899;28;20029;-69
2022/05/10 08:22:17;;;;;;;24.08;17.88;;;;;;;;;;5019126;28;20092;-69
2022/05/10 08:24:44;;;;;;;24.17;17.70;;;;;;;;;;5020094;28;20026;-69
2022/05/10 08:27:10;;;;;;;22.05;17.65;;;;;;;;;;5019616;28;20061;-69
2022/05/10 08:29:37;;;;;;;21.73;17.70;;;;;;;;;;5019782;28;20033;-69
2022/05/10 08:32:03;;;;;;;21.20;16.48;;;;;;;;;;5016021;28;20026;-69
2022/05/10 08:34:32;;;;;;;21.08;16.27;;;;;;;;;;5018741;28;20101;-69
2022/05/10 08:36:59;;;;;;;20.92;15.68;;;;;;;;;;5019492;28;20034;-69
2022/05/10 08:39:25;;;;;;;18.38;15.90;;;;;;;;;;5023059;28;20135;-69
2022/05/10 08:41:57;;;;;;;24.55;16.75;;;;;;;;;;5028237;28;20033;-69
2022/05/10 08:44:28;;;;;;;22.55;16.13;;;;;;;;;;5031221;28;20057;-69
2022/05/10 08:46:56;;;;;;;18.50;15.00;;;;;;;;;;5017023;28;20060;-69
2022/05/10 08:49:33;;;;;;;20.13;14.27;;;;;;;;;;5019168;28;20061;-69
2022/05/10 08:51:59;;;;;;;19.30;14.55;;;;;;;;;;5019186;28;20026;-69
2022/05/10 08:54:26;;;;;;;21.52;15.20;;;;;;;;;;5019567;28;20029;-69
2022/05/10 08:56:55;;;;;;;20.05;14.63;;;;;;;;;;5020148;28;20515;-69
2022/05/10 08:59:26;;;;;;;20.75;14.95;;;;;;;;;;5016894;28;20040;-69
2022/05/10 09:02:04;;;;;;;20.35;15.55;;;;;;;;;;5016945;28;20021;-69
2022/05/10 09:04:41;;;;;;;20.52;14.05;;;;;;;;;;5018603;28;20412;-70
2022/05/10 09:07:09;;;;;;;17.45;12.60;;;;;;;;;;5028616;28;20034;-69
2022/05/10 09:09:49;;;;;;;16.75;11.50;;;;;;;;;;5023227;28;20030;-69
2022/05/10 09:12:20;;;;;;;14.57;10.80;;;;;;;;;;5019401;28;20113;-69
2022/05/10 09:15:00;;;;;;;13.77;9.95;;;;;;;;;;5018742;28;20410;-69
2022/05/10 09:17:29;;;;;;;21.90;9.93;;;;;;;;;;5016376;28;20087;-69
2022/05/10 09:19:55;;;;;;;18.63;9.70;;;;;;;;;;5030378;28;20028;-71
2022/05/10 09:22:40;;;;;;;14.75;9.48;;;;;;;;;;5029737;28;20108;-71
2022/05/10 09:25:14;;;;;;;13.75;9.20;;;;;;;;;;5019701;28;20520;-71
2022/05/10 09:27:41;;;;;;;14.55;9.25;;;;;;;;;;5018980;28;20535;-71
2022/05/10 09:30:08;;;;;;;13.55;8.98;;;;;;;;;;5019110;28;20518;-71
2022/05/10 09:35:24;;;;;;;14.00;8.75;;;;;;;;;;5015788;28;20056;-71
2022/05/10 09:37:52;;;;;;;11.90;9.27;;;;;;;;;;5015180;28;20038;-71
2022/05/10 09:40:19;;;;;;;11.68;8.45;;;;;;;;;;5018134;28;20040;-71
2022/05/10 09:42:49;;;;;;;12.13;8.00;;;;;;;;;;5018571;28;20033;-71
2022/05/10 09:45:16;;;;;;;13.35;7.72;;;;;;;;;;5019058;28;20034;-71
2022/05/10 09:47:56;;;;;;;11.70;7.15;;;;;;;;;;5018709;28;20033;-72
2022/05/10 09:50:26;;;;;;;12.55;8.30;;;;;;;;;;5015882;28;20053;-71
2022/05/10 09:53:06;;;;;;;10.38;7.50;;;;;;;;;;5016026;28;20053;-71
2022/05/10 09:55:33;;;;;;;10.65;8.48;;;;;;;;;;5018109;28;20037;-71
2022/05/10 09:58:11;;;;;;;15.23;8.20;;;;;;;;;;5026202;28;20025;-71
2022/05/10 10:00:41;;;;;;;9.52;7.65;;;;;;;;;;5021934;28;20025;-71
2022/05/10 10:03:08;;;;;;;9.85;7.38;;;;;;;;;;5018738;28;20512;-71
2022/05/10 10:05:35;;;;;;;13.50;7.85;;;;;;;;;;5029491;28;20420;-71
2022/05/10 10:08:01;;;;;;;9.95;7.38;;;;;;;;;;5015085;28;20033;-71
2022/05/10 10:10:34;;;;;;;10.02;7.40;;;;;;;;;;5017572;28;20117;-71
2022/05/10 10:13:21;;;;;;;12.43;7.50;;;;;;;;;;5017073;28;20420;-71
2022/05/10 10:15:47;;;;;;;14.63;8.48;;;;;;;;;;5018259;28;20104;-71
2022/05/10 10:18:33;;;;;;;14.25;8.40;;;;;;;;;;5017442;28;20088;-71
2022/05/10 10:21:00;;;;;;;11.13;8.18;;;;;;;;;;5017914;28;20025;-71
2022/05/10 10:23:34;;;;;;;12.73;7.82;;;;;;;;;;5016038;28;20033;-72
2022/05/10 10:26:04;;;;;;;12.38;8.00;;;;;;;;;;5013984;28;20034;-71
2022/05/10 10:28:32;;;;;;;10.88;7.07;;;;;;;;;;5016945;28;20030;-71
2022/05/10 10:30:58;;;;;;;13.38;7.03;;;;;;;;;;5017875;28;20084;-71
2022/05/10 10:33:29;;;;;;;10.65;7.20;;;;;;;;;;5017212;28;20124;-71
2022/05/10 10:35:58;;;;;;;9.77;6.63;;;;;;;;;;5016568;28;20084;-71
2022/05/10 10:38:29;;;;;;;10.45;6.55;;;;;;;;;;5028794;28;20026;-71
2022/05/10 10:41:06;;;;;;;10.38;6.50;;;;;;;;;;5014966;28;20493;-71
2022/05/10 10:43:35;;;;;;;9.10;6.22;;;;;;;;;;5027598;28;20025;-72
2022/05/10 10:46:24;;;;;;;12.65;6.30;;;;;;;;;;5018173;28;20045;-71
2022/05/10 10:48:55;;;;;;;12.05;6.55;;;;;;;;;;5017467;28;20049;-71
2022/05/10 10:51:23;;;;;;;9.77;6.35;;;;;;;;;;5017327;28;20068;-71
2022/05/10 10:53:49;;;;;;;11.43;6.70;;;;;;;;;;5017701;28;20035;-71
2022/05/10 10:56:21;;;;;;;10.40;6.55;;;;;;;;;;5013910;28;20389;-72
2022/05/10 10:59:02;;;;;;;10.75;6.70;;;;;;;;;;5014882;28;20021;-71
2022/05/10 11:01:47;;;;;;;8.00;5.97;;;;;;;;;;5016062;28;20033;-71
2022/05/10 11:04:16;;;;;;;11.20;6.63;;;;;;;;;;5026710;28;20022;-72
2022/05/10 11:06:53;;;;;;;10.43;6.32;;;;;;;;;;5020064;28;20516;-71
2022/05/10 11:09:35;;;;;;;10.43;6.55;;;;;;;;;;5016825;28;20028;-71
2022/05/10 11:12:27;;;;;;;12.60;7.25;;;;;;;;;;5017473;28;20040;-71
2022/05/10 11:15:11;;;;;;;8.98;6.40;;;;;;;;;;5015761;28;20053;-71
2022/05/10 11:17:55;;;;;;;9.80;5.53;;;;;;;;;;5025673;28;20022;-71
2022/05/10 11:20:33;;;;;;;8.18;5.93;;;;;;;;;;5014347;28;20032;-71
2022/05/10 11:23:04;;;;;;;10.80;5.88;;;;;;;;;;5013414;28;20053;-74
2022/05/10 11:25:49;;;;;;;9.80;5.30;;;;;;;;;;5015949;28;20026;-74
2022/05/10 11:28:17;;;;;;;9.82;5.43;;;;;;;;;;5026995;28;20485;-75
2022/05/10 11:30:57;;;;;;;9.32;5.38;;;;;;;;;;5019138;28;20038;-72
2022/05/10 11:33:52;;;;;;;9.77;5.10;;;;;;;;;;5016774;28;20026;-72
2022/05/10 11:36:33;;;;;;;7.35;4.68;;;;;;;;;;4997397;28;20027;-73
2022/05/10 11:38:59;;;;;;;8.90;5.53;;;;;;;;;;5000280;28;20439;-73
2022/05/10 11:41:28;;;;;;;7.85;5.10;;;;;;;;;;5008858;28;20116;-73
2022/05/10 11:43:54;;;;;;;9.57;4.50;;;;;;;;;;5008665;28;20030;-74
2022/05/10 11:46:31;;;;;;;7.63;5.18;;;;;;;;;;4989287;28;20038;-75
2022/05/10 11:49:06;;;;;;;9.52;5.53;;;;;;;;;;4997609;28;20175;-74
2022/05/10 11:51:44;;;;;;;8.93;5.60;;;;;;;;;;5004210;28;20044;-75
2022/05/10 11:54:19;;;;;;;11.35;5.03;;;;;;;;;;5008852;28;20161;-74
2022/05/10 11:56:47;;;;;;;9.02;5.03;;;;;;;;;;5008530;28;20068;-74
2022/05/10 11:59:15;;;;;;;7.88;4.68;;;;;;;;;;5008658;28;20107;-77
2022/05/10 12:01:48;;;;;;;8.52;4.60;;;;;;;;;;5009136;28;20029;-74
2022/05/10 12:04:29;;;;;;;8.20;4.88;;;;;;;;;;4996143;28;20417;-75
2022/05/10 12:06:57;;;;;;;7.82;4.72;;;;;;;;;;5007230;28;20030;-74
2022/05/10 12:09:49;;;;;;;9.75;4.82;;;;;;;;;;5008940;28;20493;-74
2022/05/10 12:12:35;;;;;;;12.50;4.15;;;;;;;;;;5005231;28;20038;-74
2022/05/10 12:23:47;;;;;;;11.38;4.75;;;;;;;;;;5027771;28;20064;-74
2022/05/10 12:26:31;;;;;;;7.47;4.20;;;;;;;;;;5028259;28;20362;-75
2022/05/10 12:28:58;;;;;;;8.27;4.32;;;;;;;;;;5027588;28;20028;-74
2022/05/10 12:31:25;;;;;;;8.52;4.35;;;;;;;;;;5028403;28;20140;-74
2022/05/10 12:33:59;;;;;;;9.38;4.30;;;;;;;;;;5027033;28;20025;-74
2022/05/10 12:36:41;;;;;;;7.35;4.28;;;;;;;;;;5024922;28;20030;-74
2022/05/10 12:39:19;;;;;;;8.90;4.10;;;;;;;;;;5023751;28;20021;-73
2022/05/10 12:41:45;;;;;;;5.75;3.40;;;;;;;;;;5019248;28;20075;-73
2022/05/10 12:44:22;;;;;;;9.02;3.63;;;;;;;;;;5024341;28;20021;-74
2022/05/10 12:46:58;;;;;;;8.55;4.68;;;;;;;;;;5013416;28;20033;-74
2022/05/10 12:49:30;;;;;;;8.80;4.20;;;;;;;;;;5018117;28;20139;-74
2022/05/10 12:52:19;;;;;;;7.30;4.10;;;;;;;;;;5024552;28;20033;-74
2022/05/10 12:54:45;;;;;;;5.95;3.90;;;;;;;;;;5018111;28;20591;-74
2022/05/10 12:57:37;;;;;;;7.22;4.50;;;;;;;;;;5016053;28;20416;-73
2022/05/10 13:00:11;;;;;;;8.70;4.82;;;;;;;;;;5015213;28;20034;-73
2022/05/10 13:02:39;;;;;;;6.68;4.40;;;;;;;;;;5014405;28;20037;-73
2022/05/10 13:05:07;;;;;;;8.40;4.20;;;;;;;;;;5011229;28;20022;-73
2022/05/10 13:07:49;;;;;;;10.00;4.93;;;;;;;;;;5014979;28;20029;-73
2022/05/10 13:10:20;;;;;;;7.75;4.40;;;;;;;;;;5024769;28;20049;-73
2022/05/10 13:13:00;;;;;;;7.93;4.57;;;;;;;;;;5022850;28;20112;-73
2022/05/10 13:15:26;;;;;;;8.70;4.53;;;;;;;;;;5023200;28;20045;-73
2022/05/10 13:17:54;;;;;;;8.93;5.13;;;;;;;;;;5025162;28;20045;-73
2022/05/10 13:20:26;;;;;;;6.50;4.72;;;;;;;;;;5011948;28;20041;-74
2022/05/10 13:22:52;;;;;;;8.73;4.35;;;;;;;;;;5023837;28;20026;-74
2022/05/10 13:25:39;;;;;;;9.32;4.90;;;;;;;;;;5018589;28;20034;-70
2022/05/10 13:28:24;;;;;;;9.48;4.63;;;;;;;;;;5018925;28;20025;-73
2022/05/10 13:31:00;;;;;;;8.65;4.88;;;;;;;;;;5019109;28;20488;-71
2022/05/10 13:33:26;;;;;;;7.38;4.47;;;;;;;;;;5018634;28;20029;-74
2022/05/10 13:35:57;;;;;;;9.68;4.93;;;;;;;;;;5018778;28;20100;-74
2022/05/10 13:38:29;;;;;;;9.52;4.70;;;;;;;;;;5016101;28;20034;-74
2022/05/10 13:40:58;;;;;;;9.10;4.87;;;;;;;;;;5014495;28;20021;-73
2022/05/10 13:43:31;;;;;;;8.32;4.88;;;;;;;;;;5017268;28;20083;-73
2022/05/10 13:46:02;;;;;;;7.72;4.68;;;;;;;;;;5019024;28;20061;-74
2022/05/10 13:48:29;;;;;;;11.52;4.85;;;;;;;;;;5018747;28;20030;-74
2022/05/10 13:50:56;;;;;;;6.47;4.75;;;;;;;;;;5017119;28;20132;-74
2022/05/10 13:53:28;;;;;;;9.57;5.50;;;;;;;;;;5029415;28;20125;-74
2022/05/10 13:55:55;;;;;;;9.27;5.03;;;;;;;;;;5015071;28;20036;-74
2022/05/10 13:58:29;;;;;;;9.95;4.80;;;;;;;;;;5018060;28;20030;-74
2022/05/10 14:00:55;;;;;;;;;;;;;;;;;;5016453;28;20034;-74
2022/05/10 14:03:21;;;;;;;8.00;4.80;;;;;;;;;;5017899;28;20055;-74
2022/05/10 14:05:49;;;;;;;8.30;5.03;;;;;;;;;;5018316;28;20025;-74
2022/05/10 14:08:20;;;;;;;9.60;5.30;;;;;;;;;;5014650;28;20041;-74
2022/05/10 14:10:58;;;;;;;9.70;4.72;;;;;;;;;;5015548;28;20069;-73
2022/05/10 14:13:24;;;;;;;9.68;4.60;;;;;;;;;;5017583;28;20497;-73
2022/05/10 14:15:50;;;;;;;8.63;5.32;;;;;;;;;;5018512;28;20050;-74
2022/05/10 14:18:20;;;;;;;6.40;4.45;;;;;;;;;;5018523;28;20493;-73
2022/05/10 14:20:48;;;;;;;14.73;4.80;;;;;;;;;;5018110;28;20112;-73
2022/05/10 14:23:16;;;;;;;8.32;4.40;;;;;;;;;;5012628;28;20208;-73
2022/05/10 14:25:49;;;;;;;7.50;4.90;;;;;;;;;;5016314;28;20496;-73
2022/05/10 14:28:30;;;;;;;7.55;4.53;;;;;;;;;;5018032;28;20481;-73
2022/05/10 14:30:56;;;;;;;6.22;4.35;;;;;;;;;;5024727;28;20041;-73
2022/05/10 14:33:24;;;;;;;9.95;4.43;;;;;;;;;;5023555;28;20554;-75
2022/05/10 14:36:00;;;;;;;9.45;4.78;;;;;;;;;;5015851;28;20084;-81
2022/05/10 14:38:27;;;;;;;9.13;4.78;;;;;;;;;;5029220;28;20407;-76
2022/05/10 14:40:54;;;;;;;8.30;4.40;;;;;;;;;;5014856;28;20026;-77
2022/05/10 14:43:23;;;;;;;8.70;4.55;;;;;;;;;;5017016;28;20554;-77
2022/05/10 14:45:50;;;;;;;8.35;4.20;;;;;;;;;;5017712;28;20072;-78
2022/05/10 14:48:34;;;;;;;9.27;4.93;;;;;;;;;;5017900;28;20026;-77
2022/05/10 14:51:29;;;;;;;7.13;4.63;;;;;;;;;;5017314;28;20421;-77
2022/05/10 14:53:56;;;;;;;7.35;5.00;;;;;;;;;;5016626;28;20512;-77
2022/05/10 14:56:27;;;;;;;14.60;5.00;;;;;;;;;;5013852;28;20025;-77
2022/05/10 14:59:07;;;;;;;7.97;4.55;;;;;;;;;;5014832;28;20037;-77
2022/05/10 15:01:35;;;;;;;8.55;4.90;;;;;;;;;;5016911;28;20026;-78
2022/05/10 15:04:13;;;;;;;10.27;4.65;;;;;;;;;;5016889;28;20485;-78
2022/05/10 15:06:41;;;;;;;10.90;4.63;;;;;;;;;;5016762;28;20026;-77